Terminal Aerodrome Forecast
Issued by NWS Miami, FL

Home | Current Version | Previous Version | Text Only | Print | Product List | Glossary On
Versions: 1 2 3 4 5 6 7 8 9 10 11 12 13 14 15 16 17 18 19 20 21 22 23 24
000
FTUS42 KMFL 252046 AAA
TAFFLL
TAF AMD
KFLL 252046Z 2521/2618 06011KT P6SM VCSH SCT040 BKN100
     FM260100 07006KT P6SM VCSH SCT035
     FM261400 08010KT P6SM VCSH SCT035=

USA.gov is the U.S. government's official web portal to all federal, state and local government web resources and services.